createdAt,value
2022-07-29T00:01:43.168Z,99844.44
2022-07-29T00:04:10.521Z,99829.09
2022-07-29T00:06:37.390Z,99857.09
2022-07-29T00:09:04.247Z,99863.31
2022-07-29T00:11:31.384Z,99846.63
2022-07-29T00:13:58.394Z,99853.63
2022-07-29T00:16:25.316Z,99862.44
2022-07-29T00:18:52.124Z,99826.88
2022-07-29T00:21:19.236Z,99799.16
2022-07-29T00:23:46.007Z,99861.75
2022-07-29T00:26:12.816Z,99856.72
2022-07-29T00:28:39.808Z,99808.44
2022-07-29T00:31:06.721Z,99858.22
2022-07-29T00:33:33.497Z,99833.91
2022-07-29T00:36:00.739Z,99855.91
2022-07-29T00:38:27.706Z,99837.81
2022-07-29T00:40:54.424Z,99861.53
2022-07-29T00:43:22.147Z,99867.63
2022-07-29T00:45:48.900Z,99859.75
2022-07-29T00:48:15.654Z,99877.84
2022-07-29T00:50:42.714Z,99841.34
2022-07-29T00:53:12.544Z,99825.69
2022-07-29T00:55:39.430Z,99832.63
2022-07-29T00:58:07.514Z,99872.47
2022-07-29T01:00:34.372Z,99888.03
2022-07-29T01:03:01.637Z,99878.47
2022-07-29T01:05:49.642Z,99848.97
2022-07-29T01:08:18.193Z,99853.41
2022-07-29T01:10:46.578Z,99889.31
2022-07-29T01:13:15.590Z,99884.06
2022-07-29T01:15:50.647Z,99898.38
2022-07-29T01:18:42.897Z,99882.13
2022-07-29T01:21:31.004Z,99887.44
2022-07-29T01:24:13.092Z,99896.47
2022-07-29T01:26:52.313Z,99895.69
2022-07-29T01:29:38.681Z,99876.09
2022-07-29T01:32:28.717Z,99842.13
2022-07-29T01:35:02.489Z,99901.28
2022-07-29T01:37:45.546Z,99897.00
2022-07-29T01:40:20.900Z,99915.59
2022-07-29T01:42:52.598Z,99903.31
2022-07-29T01:45:39.932Z,99894.72
2022-07-29T01:48:37.982Z,99895.69
2022-07-29T01:51:07.680Z,99898.34
2022-07-29T01:53:44.791Z,99899.31
2022-07-29T01:56:14.644Z,99867.25
2022-07-29T01:58:44.721Z,99892.44
2022-07-29T02:01:12.688Z,99891.84
2022-07-29T02:03:45.017Z,99889.03
2022-07-29T02:06:13.495Z,99895.94
2022-07-29T02:08:41.781Z,99906.25
2022-07-29T02:11:09.784Z,99908.78
2022-07-29T02:13:38.433Z,99890.28
2022-07-29T02:16:08.469Z,99892.22
2022-07-29T02:18:38.461Z,99854.81
2022-07-29T02:21:05.604Z,99900.38
2022-07-29T02:23:45.260Z,99900.16
2022-07-29T02:26:19.362Z,99840.34
2022-07-29T02:28:48.305Z,99917.66
2022-07-29T02:31:17.633Z,99916.59
2022-07-29T02:33:46.967Z,99912.25
2022-07-29T02:36:14.369Z,99913.97
2022-07-29T02:38:52.367Z,99919.66
2022-07-29T02:41:30.631Z,99903.41
2022-07-29T02:44:12.765Z,99932.66
2022-07-29T02:47:20.230Z,99920.59
2022-07-29T02:49:56.297Z,99913.25
2022-07-29T02:52:28.667Z,99871.63
2022-07-29T02:55:11.949Z,99906.06
2022-07-29T02:57:54.380Z,99884.94
2022-07-29T03:00:26.436Z,99919.88
2022-07-29T03:02:55.926Z,99912.88
2022-07-29T03:05:23.705Z,99920.06
2022-07-29T03:07:56.135Z,99913.59
2022-07-29T03:10:24.571Z,99856.22
2022-07-29T03:12:52.196Z,99902.88
2022-07-29T03:15:20.730Z,99916.22
2022-07-29T03:17:50.586Z,99910.88
2022-07-29T03:20:19.034Z,99927.03
2022-07-29T03:22:48.168Z,99908.72
2022-07-29T03:25:19.993Z,99921.13
2022-07-29T03:27:48.741Z,99919.22
2022-07-29T03:30:22.007Z,99920.31
2022-07-29T03:32:52.178Z,99912.75
2022-07-29T03:35:22.221Z,99913.59
2022-07-29T03:37:49.672Z,99886.19
2022-07-29T03:40:25.503Z,99908.81
2022-07-29T03:42:54.700Z,99907.78
2022-07-29T03:45:22.971Z,99915.47
2022-07-29T03:48:01.372Z,99903.22
2022-07-29T03:50:31.285Z,99923.31
2022-07-29T03:52:58.756Z,99902.69
2022-07-29T03:55:27.845Z,99921.75
2022-07-29T03:57:57.866Z,99918.84
2022-07-29T04:00:26.635Z,99918.47
2022-07-29T04:02:53.658Z,99923.81
2022-07-29T04:05:20.542Z,99925.91
2022-07-29T04:07:48.876Z,99936.63
2022-07-29T04:10:18.035Z,99931.78
2022-07-29T04:12:58.472Z,99891.03
2022-07-29T04:15:25.741Z,99914.56
2022-07-29T04:17:52.568Z,99925.16
2022-07-29T04:20:19.493Z,99883.63
2022-07-29T04:22:46.577Z,99943.56
2022-07-29T04:25:13.508Z,99933.00
2022-07-29T04:28:04.061Z,99924.97
2022-07-29T04:30:32.344Z,99936.78
2022-07-29T04:33:01.839Z,99946.53
2022-07-29T04:35:29.844Z,99938.44
2022-07-29T04:37:56.835Z,99948.69
2022-07-29T04:40:23.886Z,99922.41
2022-07-29T04:42:50.565Z,99965.94
2022-07-29T04:45:22.422Z,99965.94
2022-07-29T04:47:50.329Z,99946.09
2022-07-29T04:50:17.622Z,99951.34
2022-07-29T04:52:44.985Z,99952.53
2022-07-29T04:55:12.171Z,99964.38
2022-07-29T04:57:39.028Z,99954.19
2022-07-29T05:00:07.626Z,99945.56
2022-07-29T05:02:34.444Z,99948.00
2022-07-29T05:05:01.222Z,99952.06
2022-07-29T05:07:28.229Z,99953.88
2022-07-29T05:09:57.846Z,99953.47
2022-07-29T05:12:25.098Z,99948.78
2022-07-29T05:14:52.795Z,99924.53
2022-07-29T05:17:19.657Z,99955.69
2022-07-29T05:19:46.475Z,99961.16
2022-07-29T05:22:13.504Z,99940.38
2022-07-29T05:24:40.383Z,99957.47
2022-07-29T05:27:07.333Z,99963.59
2022-07-29T05:29:44.153Z,99951.03
2022-07-29T05:32:15.554Z,99950.25
2022-07-29T05:34:50.227Z,99962.25
2022-07-29T05:37:17.552Z,99968.69
2022-07-29T05:39:48.441Z,99958.25
2022-07-29T05:42:15.998Z,99947.50
2022-07-29T05:44:42.794Z,99956.53
2022-07-29T05:47:09.989Z,99962.19
2022-07-29T05:49:36.809Z,99962.19
2022-07-29T05:52:04.177Z,99966.34
2022-07-29T05:54:31.298Z,99951.81
2022-07-29T05:56:58.179Z,99954.94
2022-07-29T05:59:29.857Z,99944.50
2022-07-29T06:01:58.498Z,99928.16
2022-07-29T06:04:25.694Z,99949.72
2022-07-29T06:06:52.723Z,99953.25
2022-07-29T06:09:20.064Z,99950.66
2022-07-29T06:11:47.229Z,99959.28
2022-07-29T06:14:14.652Z,99954.06
2022-07-29T06:16:42.162Z,99953.00
2022-07-29T06:19:09.595Z,99921.44
2022-07-29T06:21:36.513Z,99918.03
2022-07-29T06:24:09.308Z,99946.50
2022-07-29T06:26:39.675Z,99939.66
2022-07-29T06:29:08.189Z,99948.63
2022-07-29T06:31:35.411Z,99959.66
2022-07-29T06:34:02.369Z,99949.47
2022-07-29T06:36:30.836Z,99954.09
2022-07-29T06:38:57.709Z,99957.56
2022-07-29T06:41:24.860Z,99949.56
2022-07-29T06:43:55.404Z,99950.09
2022-07-29T06:46:24.320Z,99956.53
2022-07-29T06:48:52.873Z,99961.41
2022-07-29T06:51:22.883Z,99953.16
2022-07-29T06:53:59.376Z,99953.22
2022-07-29T06:56:38.542Z,99955.34
2022-07-29T06:59:10.587Z,99943.56
2022-07-29T07:01:39.193Z,99950.56
2022-07-29T07:04:06.360Z,99966.66
2022-07-29T07:06:33.307Z,99972.25
2022-07-29T07:09:00.591Z,99965.09
2022-07-29T07:11:27.390Z,99934.34
2022-07-29T07:13:58.088Z,99964.31
2022-07-29T07:16:27.572Z,99980.94
2022-07-29T07:18:54.390Z,99972.06
2022-07-29T07:21:21.643Z,99987.06
2022-07-29T07:23:48.410Z,99976.16
2022-07-29T07:26:15.889Z,99977.59
2022-07-29T07:28:42.888Z,99989.53
2022-07-29T07:31:10.475Z,99964.53
2022-07-29T07:33:37.339Z,99937.59
2022-07-29T07:36:04.797Z,99957.78
2022-07-29T07:38:31.636Z,99964.25
2022-07-29T07:40:58.591Z,99963.88
2022-07-29T07:43:25.667Z,99934.66
2022-07-29T07:45:52.426Z,99977.34
2022-07-29T07:48:19.360Z,99949.72
2022-07-29T07:50:46.417Z,99979.00
2022-07-29T07:53:13.305Z,99971.69
2022-07-29T07:58:31.260Z,99987.28
2022-07-29T08:00:58.038Z,99991.31
2022-07-29T08:03:25.106Z,99977.66
2022-07-29T08:05:52.979Z,99978.91
2022-07-29T08:08:20.004Z,99990.25
2022-07-29T08:10:53.234Z,99988.59
2022-07-29T08:13:22.513Z,99985.34
2022-07-29T08:15:58.654Z,99985.19
2022-07-29T08:18:29.879Z,99977.91
2022-07-29T08:20:57.658Z,99987.59
2022-07-29T08:23:25.405Z,99980.78
2022-07-29T08:25:54.902Z,99972.59
2022-07-29T08:28:22.194Z,99971.59
2022-07-29T08:30:53.020Z,99969.25
2022-07-29T08:33:20.031Z,99964.03
2022-07-29T08:35:46.874Z,99980.63
2022-07-29T08:38:13.603Z,99974.59
2022-07-29T08:40:40.610Z,99979.06
2022-07-29T08:43:10.550Z,99966.34
2022-07-29T08:45:49.758Z,99934.72
2022-07-29T08:48:22.289Z,99959.88
2022-07-29T08:50:55.776Z,99970.44
2022-07-29T08:53:27.718Z,99957.75
2022-07-29T08:55:56.243Z,99961.25
2022-07-29T08:58:25.110Z,99962.97
2022-07-29T09:00:55.321Z,99964.31
2022-07-29T09:03:26.381Z,99974.06
2022-07-29T09:05:54.139Z,99971.63
2022-07-29T09:08:21.339Z,99962.03
2022-07-29T09:10:49.008Z,99958.63
2022-07-29T09:13:15.794Z,99959.41
2022-07-29T09:15:42.674Z,99956.72
2022-07-29T09:18:26.763Z,99968.81
2022-07-29T09:21:15.100Z,99951.03
2022-07-29T09:23:43.934Z,99973.19
2022-07-29T09:26:10.670Z,99981.94
2022-07-29T09:28:43.191Z,99982.84
2022-07-29T09:31:10.570Z,99997.41
2022-07-29T09:33:40.351Z,99978.59
2022-07-29T09:36:09.432Z,99979.00
2022-07-29T09:38:38.444Z,99937.16
2022-07-29T09:41:06.861Z,99961.88
2022-07-29T09:43:34.377Z,99987.81
2022-07-29T09:46:13.144Z,99962.91
2022-07-29T09:48:40.488Z,99977.13
2022-07-29T09:51:21.267Z,99935.63
2022-07-29T09:53:51.409Z,99985.00
2022-07-29T09:56:20.702Z,99975.66
2022-07-29T09:58:47.593Z,99986.69
2022-07-29T10:01:15.121Z,99964.75
2022-07-29T10:03:53.417Z,99970.75
2022-07-29T10:06:20.252Z,99971.25
2022-07-29T10:08:47.722Z,99968.78
2022-07-29T10:11:18.889Z,99975.31
2022-07-29T10:13:48.098Z,99968.06
2022-07-29T10:16:17.146Z,99972.59
2022-07-29T10:18:45.117Z,99967.06
2022-07-29T10:21:35.513Z,99955.13
2022-07-29T10:24:01.106Z,99980.00
2022-07-29T10:26:29.228Z,99970.31
2022-07-29T10:28:56.640Z,99970.22
2022-07-29T10:31:30.846Z,99965.59
2022-07-29T10:34:37.800Z,99959.81
2022-07-29T10:37:25.758Z,99964.31
2022-07-29T10:40:31.189Z,99964.97
2022-07-29T10:43:06.915Z,99955.75
2022-07-29T10:45:34.869Z,99959.72
2022-07-29T10:48:08.006Z,99960.84
2022-07-29T10:50:58.245Z,99962.03
2022-07-29T10:53:26.057Z,99966.00
2022-07-29T10:56:01.329Z,99925.66
2022-07-29T10:58:33.364Z,99966.34
2022-07-29T11:01:37.239Z,99957.16
2022-07-29T11:04:06.114Z,99979.19
2022-07-29T11:07:15.607Z,99969.22
2022-07-29T11:09:46.534Z,99962.34
2022-07-29T11:12:38.766Z,99962.88
2022-07-29T11:15:09.703Z,99956.81
2022-07-29T11:17:54.728Z,99978.19
2022-07-29T11:20:37.849Z,99934.66
2022-07-29T11:23:33.874Z,99972.78
2022-07-29T11:26:12.885Z,99978.84
2022-07-29T11:28:50.827Z,99971.94
2022-07-29T11:31:21.553Z,99975.38
2022-07-29T11:33:56.193Z,99985.16
2022-07-29T11:36:28.018Z,99986.63
2022-07-29T11:39:36.855Z,99971.19
2022-07-29T11:42:28.844Z,99972.81
2022-07-29T11:45:42.190Z,99972.00
2022-07-29T11:48:31.431Z,99974.66
2022-07-29T11:51:12.095Z,99986.13
2022-07-29T11:53:40.742Z,99970.59
2022-07-29T11:56:10.461Z,99939.88
2022-07-29T11:58:38.338Z,99944.38
2022-07-29T12:01:06.321Z,99981.94
2022-07-29T12:03:35.979Z,99963.88
2022-07-29T12:06:18.388Z,99982.72
2022-07-29T12:08:46.052Z,99971.19
2022-07-29T12:11:21.179Z,99970.16
2022-07-29T12:13:50.055Z,99970.66
2022-07-29T12:16:28.022Z,99984.34
2022-07-29T12:19:02.275Z,99985.19
2022-07-29T12:21:53.673Z,99983.63
2022-07-29T12:24:23.690Z,99963.69
2022-07-29T12:27:00.893Z,99968.13
2022-07-29T12:29:35.606Z,99931.38
2022-07-29T12:32:04.794Z,99968.22
2022-07-29T12:34:32.893Z,99974.00
2022-07-29T12:37:00.036Z,99976.22
2022-07-29T12:39:29.000Z,99976.16
2022-07-29T12:42:03.984Z,99977.06
2022-07-29T12:44:53.286Z,99961.59
2022-07-29T12:47:21.055Z,99944.69
2022-07-29T12:49:49.231Z,99966.75
2022-07-29T12:52:29.969Z,99981.59
2022-07-29T12:54:57.699Z,99967.16
2022-07-29T12:57:25.630Z,99972.38
2022-07-29T13:00:09.282Z,99955.44
2022-07-29T13:02:37.409Z,99977.28
2022-07-29T13:05:06.335Z,99968.56
2022-07-29T13:07:54.595Z,99976.03
2022-07-29T13:10:24.301Z,99974.41
2022-07-29T13:13:11.165Z,99976.91
2022-07-29T13:15:44.568Z,99950.00
2022-07-29T13:18:29.942Z,99981.38
2022-07-29T13:20:58.314Z,99976.31
2022-07-29T13:23:25.389Z,99969.34
2022-07-29T13:25:52.413Z,99974.25
2022-07-29T13:28:22.576Z,99952.81
2022-07-29T13:30:49.517Z,99967.63
2022-07-29T13:33:16.280Z,99931.69
2022-07-29T13:35:43.435Z,99947.16
2022-07-29T13:38:10.292Z,99961.03
2022-07-29T13:40:37.131Z,99985.47
2022-07-29T13:43:05.132Z,99978.06
2022-07-29T13:45:32.305Z,99974.00
2022-07-29T13:47:59.299Z,99974.03
2022-07-29T13:50:26.140Z,99945.34
2022-07-29T13:52:53.716Z,99983.78
2022-07-29T13:55:20.738Z,99976.50
2022-07-29T13:57:48.796Z,99978.25
2022-07-29T14:00:16.574Z,99961.28
2022-07-29T14:02:43.697Z,99959.97
2022-07-29T14:05:11.399Z,99929.72
2022-07-29T14:07:39.968Z,99955.50
2022-07-29T14:10:08.157Z,99995.06
2022-07-29T14:12:35.400Z,99956.94
2022-07-29T14:15:02.660Z,99959.81
2022-07-29T14:17:29.987Z,99957.44
2022-07-29T14:19:56.953Z,99935.72
2022-07-29T14:22:25.440Z,99939.38
2022-07-29T14:24:53.310Z,99970.56
2022-07-29T14:27:20.201Z,99972.81
2022-07-29T14:30:08.398Z,99968.31
2022-07-29T14:32:35.321Z,99936.13
2022-07-29T14:35:02.486Z,99935.97
2022-07-29T14:37:39.354Z,99970.97
2022-07-29T14:40:11.559Z,99924.63
2022-07-29T14:42:39.509Z,99951.41
2022-07-29T14:45:08.090Z,99910.59
2022-07-29T14:47:35.314Z,99953.19
2022-07-29T14:50:02.614Z,99971.66
2022-07-29T14:52:30.032Z,99926.91
2022-07-29T14:54:57.945Z,99902.19
2022-07-29T14:57:24.983Z,99873.59
2022-07-29T14:59:52.205Z,99914.44
2022-07-29T15:02:19.531Z,99944.00
2022-07-29T15:04:47.198Z,99963.13
2022-07-29T15:07:16.929Z,99897.81
2022-07-29T15:09:49.542Z,99811.06
2022-07-29T15:12:17.114Z,99957.13
2022-07-29T15:14:43.958Z,99943.59
2022-07-29T15:17:11.351Z,99962.81
2022-07-29T15:19:38.146Z,99957.81
2022-07-29T15:22:08.232Z,99920.03
2022-07-29T15:24:35.821Z,99949.53
2022-07-29T15:27:02.716Z,99948.41
2022-07-29T15:29:29.526Z,99943.66
2022-07-29T15:32:00.115Z,99926.66
2022-07-29T15:34:27.468Z,99960.31
2022-07-29T15:36:54.379Z,99900.19
2022-07-29T15:39:22.929Z,99963.16
2022-07-29T15:41:53.273Z,99954.34
2022-07-29T15:44:21.217Z,99945.59
2022-07-29T15:47:06.222Z,99938.75
2022-07-29T15:49:48.056Z,99962.28
2022-07-29T15:52:25.461Z,99946.78
2022-07-29T15:54:54.779Z,99962.66
2022-07-29T15:57:21.963Z,99947.31
2022-07-29T15:59:48.917Z,99969.59
2022-07-29T16:02:15.722Z,99950.69
2022-07-29T16:04:43.235Z,99975.81
2022-07-29T16:07:14.278Z,99972.44
2022-07-29T16:09:42.302Z,99960.84
2022-07-29T16:12:13.679Z,99961.47
2022-07-29T16:14:46.193Z,99976.25
2022-07-29T16:17:16.493Z,99968.78
2022-07-29T16:19:44.497Z,99941.16
2022-07-29T16:22:11.980Z,99978.50
2022-07-29T16:24:39.410Z,99979.06
2022-07-29T16:27:06.846Z,99965.03
2022-07-29T16:29:34.265Z,99989.03
2022-07-29T16:32:01.517Z,99955.03
2022-07-29T16:34:29.893Z,99965.56
2022-07-29T16:36:57.015Z,99971.97
2022-07-29T16:39:23.967Z,99988.84
2022-07-29T16:41:51.025Z,99991.78
2022-07-29T16:44:18.072Z,99938.94
2022-07-29T16:46:45.399Z,99967.69
2022-07-29T16:49:19.207Z,99977.09
2022-07-29T16:51:48.042Z,99983.53
2022-07-29T16:54:14.994Z,99974.84
2022-07-29T16:56:41.905Z,99982.16
2022-07-29T16:59:08.990Z,99969.69
2022-07-29T17:01:35.751Z,99957.03
2022-07-29T17:04:08.569Z,99967.19
2022-07-29T17:06:37.650Z,99952.72
2022-07-29T17:09:07.971Z,99956.75
2022-07-29T17:11:53.765Z,99971.66
2022-07-29T17:14:27.849Z,99966.56
2022-07-29T17:17:00.266Z,99978.84
2022-07-29T17:19:33.863Z,99966.97
2022-07-29T17:22:19.445Z,99993.69
2022-07-29T17:24:48.581Z,100021.78
2022-07-29T17:27:16.379Z,99979.22
2022-07-29T17:29:43.604Z,100005.00
2022-07-29T17:32:11.262Z,100020.69
2022-07-29T17:34:41.060Z,99991.78
2022-07-29T17:37:09.553Z,100028.94
2022-07-29T17:39:39.962Z,100012.66
2022-07-29T17:42:10.938Z,100030.09
2022-07-29T17:44:39.127Z,100027.84
2022-07-29T17:47:10.673Z,99974.94
2022-07-29T17:49:43.842Z,100041.09
2022-07-29T17:52:11.875Z,99994.53
2022-07-29T17:54:38.789Z,100036.75
2022-07-29T17:57:05.931Z,100036.59
2022-07-29T17:59:33.026Z,100013.34
2022-07-29T18:02:02.494Z,100034.41
2022-07-29T18:04:32.316Z,100000.56
2022-07-29T18:07:00.044Z,100023.06
2022-07-29T18:09:27.141Z,100046.88
2022-07-29T18:11:54.289Z,100040.84
2022-07-29T18:14:21.118Z,100025.69
2022-07-29T18:16:50.597Z,100042.34
2022-07-29T18:19:17.850Z,100020.63
2022-07-29T18:21:54.016Z,100001.81
2022-07-29T18:24:25.683Z,100045.19
2022-07-29T18:26:53.255Z,100038.06
2022-07-29T18:29:22.004Z,100041.72
2022-07-29T18:31:49.047Z,100023.66
2022-07-29T18:34:19.646Z,100029.94
2022-07-29T18:36:46.916Z,100057.06
2022-07-29T18:39:20.975Z,100060.75
2022-07-29T18:41:51.029Z,100051.28
2022-07-29T18:44:22.717Z,100066.75
2022-07-29T18:46:52.201Z,100055.72
2022-07-29T18:49:19.448Z,100062.06
2022-07-29T18:51:46.741Z,100037.03
2022-07-29T18:54:15.695Z,100048.00
2022-07-29T18:56:43.816Z,100061.50
2022-07-29T18:59:11.622Z,100017.25
2022-07-29T19:01:38.742Z,100068.00
2022-07-29T19:04:08.127Z,100042.09
2022-07-29T19:06:35.559Z,99994.50
2022-07-29T19:09:02.370Z,100028.41
2022-07-29T19:11:29.393Z,100049.31
2022-07-29T19:13:56.265Z,100048.84
2022-07-29T19:16:23.039Z,100047.31
2022-07-29T19:18:49.969Z,100021.56
2022-07-29T19:21:17.414Z,100054.66
2022-07-29T19:24:05.771Z,100047.84
2022-07-29T19:26:33.509Z,100054.38
2022-07-29T19:29:01.088Z,100053.03
2022-07-29T19:31:28.395Z,100062.25
2022-07-29T19:33:55.473Z,100043.41
2022-07-29T19:36:22.587Z,100032.53
2022-07-29T19:38:49.660Z,100053.47
2022-07-29T19:41:17.169Z,100067.63
2022-07-29T19:43:51.499Z,100050.34
2022-07-29T19:46:23.792Z,99963.16
2022-07-29T19:48:51.020Z,100049.09
2022-07-29T19:51:18.008Z,100044.81
2022-07-29T19:53:45.356Z,100072.84
2022-07-29T19:56:12.485Z,100050.25
2022-07-29T19:58:40.809Z,100032.97
2022-07-29T20:01:10.575Z,100061.81
2022-07-29T20:03:39.944Z,100026.34
2022-07-29T20:06:07.680Z,100070.91
2022-07-29T20:08:35.086Z,100017.91
2022-07-29T20:11:02.776Z,100053.69
2022-07-29T20:13:31.748Z,100019.97
2022-07-29T20:15:59.560Z,100067.03
2022-07-29T20:18:29.354Z,100073.19
2022-07-29T20:20:57.588Z,100083.78
2022-07-29T20:23:24.666Z,100084.72
2022-07-29T20:25:51.570Z,100077.88
2022-07-29T20:28:18.554Z,100055.28
2022-07-29T20:30:45.579Z,100063.34
2022-07-29T20:33:14.598Z,100076.34
2022-07-29T20:35:41.851Z,100081.75
2022-07-29T20:38:08.867Z,100087.09
2022-07-29T20:40:36.296Z,100082.78
2022-07-29T20:43:03.084Z,100092.53
2022-07-29T20:45:30.521Z,100092.59
2022-07-29T20:47:58.535Z,100105.84
2022-07-29T20:50:25.478Z,100116.41
2022-07-29T20:52:52.846Z,100106.69
2022-07-29T20:55:20.669Z,100080.53
2022-07-29T20:57:47.708Z,100103.19
2022-07-29T21:00:14.857Z,100106.78
2022-07-29T21:02:41.946Z,100108.56
2022-07-29T21:05:09.502Z,100117.25
2022-07-29T21:07:36.564Z,100086.97
2022-07-29T21:10:04.581Z,100082.50
2022-07-29T21:12:31.407Z,100120.78
2022-07-29T21:14:58.628Z,100133.97
2022-07-29T21:17:25.689Z,100120.09
2022-07-29T21:19:53.421Z,100127.84
2022-07-29T21:22:22.314Z,100128.84
2022-07-29T21:24:50.602Z,100138.47
2022-07-29T21:27:38.106Z,100146.44
2022-07-29T21:30:09.800Z,100143.88
2022-07-29T21:32:36.879Z,100155.28
2022-07-29T21:35:18.287Z,100156.16
2022-07-29T21:37:51.766Z,100150.13
2022-07-29T21:40:18.792Z,100145.81
2022-07-29T21:42:46.183Z,100156.34
2022-07-29T21:45:16.142Z,100117.38
2022-07-29T21:47:43.256Z,100140.91
2022-07-29T21:50:10.516Z,100149.47
2022-07-29T21:52:37.413Z,100141.72
2022-07-29T21:55:04.988Z,100158.25
2022-07-29T21:57:32.252Z,100173.16
2022-07-29T22:00:02.756Z,100171.41
2022-07-29T22:02:39.621Z,100155.75
2022-07-29T22:05:06.747Z,100163.63
2022-07-29T22:07:54.306Z,100160.28
2022-07-29T22:10:20.883Z,100152.44
2022-07-29T22:12:52.032Z,100153.44
2022-07-29T22:15:19.123Z,100157.84
2022-07-29T22:17:46.051Z,100167.63
2022-07-29T22:20:13.472Z,100157.25
2022-07-29T22:22:40.263Z,100179.25
2022-07-29T22:25:07.641Z,100167.00
2022-07-29T22:27:34.800Z,100167.16
2022-07-29T22:30:01.756Z,100114.03
2022-07-29T22:32:30.238Z,100161.13
2022-07-29T22:34:57.485Z,100164.63
2022-07-29T22:37:24.479Z,100165.50
2022-07-29T22:39:51.296Z,100121.16
2022-07-29T22:42:17.997Z,100089.97
2022-07-29T22:44:45.376Z,100163.00
2022-07-29T22:47:12.209Z,100147.44
2022-07-29T22:49:39.008Z,100195.50
2022-07-29T22:52:06.094Z,100169.22
2022-07-29T22:54:33.088Z,100140.63
2022-07-29T22:57:01.290Z,100188.53
2022-07-29T22:59:28.719Z,100198.31
2022-07-29T23:01:55.517Z,100213.22
2022-07-29T23:04:23.759Z,100184.28
2022-07-29T23:06:51.304Z,100193.22
2022-07-29T23:09:18.393Z,100177.63
2022-07-29T23:11:45.199Z,100162.09
2022-07-29T23:14:12.301Z,100190.91
2022-07-29T23:16:39.085Z,100164.84
2022-07-29T23:19:05.870Z,100169.38
2022-07-29T23:21:32.893Z,100178.25
2022-07-29T23:23:59.865Z,100188.81
2022-07-29T23:26:26.731Z,100153.03
2022-07-29T23:28:53.756Z,100211.59
2022-07-29T23:31:20.773Z,100188.94
2022-07-29T23:33:47.641Z,100213.38
2022-07-29T23:36:14.788Z,100159.28
2022-07-29T23:38:41.529Z,100172.44
2022-07-29T23:41:09.850Z,100182.91
2022-07-29T23:43:38.099Z,100191.69
2022-07-29T23:46:05.355Z,100191.81
2022-07-29T23:48:33.338Z,100202.22
2022-07-29T23:51:01.274Z,100224.97
2022-07-29T23:53:29.030Z,100182.22
2022-07-29T23:55:56.301Z,100212.75
2022-07-29T23:58:23.812Z,100221.59
